Time;durP1;ratioP1;P1;durP2;ratioP2;P2;SDS_P1;SDS_P2;PMS_P1;PMS_P2;Temp;Humidity;BMP_temperature;BMP_pressure;BME280_temperature;BME280_humidity;BME280_pressure;Samples;Min_cycle;Max_cycle;Signal;HPM_P1;HPM_P2
2023/07/26 00:00:20;;;;;;;11.57;4.50;;;614.50;2432.00;;;;;;5079689;28;20029;-71
2023/07/26 00:02:46;;;;;;;13.10;5.63;;;614.40;2432.00;;;;;;5075354;28;20032;-72
2023/07/26 00:05:12;;;;;;;10.32;5.43;;;614.40;2432.00;;;;;;5081824;28;21839;-71
2023/07/26 00:07:37;;;;;;;13.20;4.80;;;614.40;2432.00;;;;;;5078746;28;20642;-72
2023/07/26 00:10:04;;;;;;;13.95;5.50;;;614.40;2432.00;;;;;;5081903;28;20480;-72
2023/07/26 00:12:29;;;;;;;11.00;5.30;;;589.70;2432.00;;;;;;5084487;28;20436;-72
2023/07/26 00:14:55;;;;;;;11.40;4.25;;;589.60;2432.00;;;;;;5089270;28;20081;-72
2023/07/26 00:17:21;;;;;;;17.38;5.57;;;589.60;2432.00;;;;;;5078174;28;20107;-72
2023/07/26 00:19:46;;;;;;;13.90;5.07;;;589.60;2432.00;;;;;;5083694;28;20035;-73
2023/07/26 00:22:12;;;;;;;13.15;5.57;;;589.70;2432.00;;;;;;5085581;28;20017;-76
2023/07/26 00:24:38;;;;;;;14.27;5.38;;;589.60;2432.00;;;;;;5082309;28;20036;-73
2023/07/26 00:27:04;;;;;;;12.73;5.25;;;589.60;2432.00;;;;;;5073515;28;20032;-75
2023/07/26 00:29:30;;;;;;;9.90;4.93;;;589.50;2432.00;;;;;;5083309;28;20031;-73
2023/07/26 00:31:55;;;;;;;14.38;5.43;;;589.50;2432.00;;;;;;5079556;28;20024;-72
2023/07/26 00:34:21;;;;;;;12.35;5.30;;;589.60;2432.00;;;;;;5078131;28;20024;-74
2023/07/26 00:36:47;;;;;;;11.77;5.50;;;589.50;2432.00;;;;;;5076160;28;20048;-72
2023/07/26 00:39:14;;;;;;;10.10;5.47;;;589.50;2432.00;;;;;;5077532;28;20077;-73
2023/07/26 00:41:39;;;;;;;10.85;5.15;;;589.70;2432.00;;;;;;5080545;28;20466;-73
2023/07/26 00:44:05;;;;;;;10.93;5.55;;;589.60;2432.00;;;;;;5076237;28;20032;-73
2023/07/26 00:46:31;;;;;;;11.30;5.10;;;589.50;2432.00;;;;;;5078374;28;20071;-73
2023/07/26 00:48:58;;;;;;;10.18;5.18;;;589.50;2432.00;;;;;;5081196;28;20537;-73
2023/07/26 00:51:25;;;;;;;6.60;4.43;;;589.50;2432.00;;;;;;5077996;28;20099;-73
2023/07/26 00:53:51;;;;;;;13.95;5.55;;;589.50;2432.00;;;;;;5078702;28;20489;-73
2023/07/26 00:56:17;;;;;;;10.95;4.90;;;589.50;2432.00;;;;;;5082749;28;20111;-72
2023/07/26 00:58:43;;;;;;;9.65;4.40;;;589.40;2432.00;;;;;;5081006;28;20377;-74
2023/07/26 01:01:09;;;;;;;13.82;5.07;;;589.40;2432.00;;;;;;5080854;28;20536;-74
2023/07/26 01:03:35;;;;;;;13.13;5.60;;;589.40;2432.00;;;;;;5076237;28;20485;-73
2023/07/26 01:06:19;;;;;;;8.85;4.57;;;589.40;2432.00;;;;;;5079345;28;20078;-74
2023/07/26 01:09:27;;;;;;;8.93;4.90;;;589.40;2432.00;;;;;;5068365;28;20031;-74
2023/07/26 01:12:06;;;;;;;9.65;4.93;;;589.20;2432.00;;;;;;5080274;28;20058;-77
2023/07/26 01:14:48;;;;;;;11.98;4.63;;;589.30;2432.00;;;;;;5075992;28;20021;-74
2023/07/26 01:17:13;;;;;;;9.57;4.65;;;589.30;2432.00;;;;;;5079891;28;20428;-73
2023/07/26 01:19:39;;;;;;;7.32;3.95;;;589.30;2432.00;;;;;;5077419;28;20025;-73
2023/07/26 01:22:05;;;;;;;10.80;4.60;;;589.20;2432.00;;;;;;5084739;28;20508;-73
2023/07/26 01:24:31;;;;;;;10.80;4.80;;;589.20;2432.00;;;;;;5077046;28;20457;-73
2023/07/26 01:26:57;;;;;;;9.68;4.70;;;589.20;2432.00;;;;;;5073630;28;20107;-73
2023/07/26 01:29:23;;;;;;;14.30;5.88;;;589.20;2432.00;;;;;;5081939;28;20024;-73
2023/07/26 01:31:49;;;;;;;10.82;5.07;;;589.20;2432.00;;;;;;5080500;28;20115;-73
2023/07/26 01:34:15;;;;;;;8.98;5.05;;;589.10;2432.00;;;;;;5075735;28;20032;-72
2023/07/26 01:36:41;;;;;;;9.38;4.75;;;589.20;2432.00;;;;;;5074210;28;20383;-73
2023/07/26 01:39:08;;;;;;;8.82;5.03;;;589.20;2432.00;;;;;;5076712;28;20470;-72
2023/07/26 01:41:34;;;;;;;10.77;4.40;;;589.20;2432.00;;;;;;5074481;28;20028;-72
2023/07/26 01:44:00;;;;;;;11.80;4.30;;;589.20;2432.00;;;;;;5081909;28;20111;-73
2023/07/26 01:46:26;;;;;;;9.98;4.43;;;589.10;2432.00;;;;;;5080743;28;20112;-73
2023/07/26 01:48:51;;;;;;;9.18;5.05;;;589.10;2432.00;;;;;;5075499;28;20120;-73
2023/07/26 01:51:17;;;;;;;13.15;5.25;;;589.10;2432.00;;;;;;5084413;28;20426;-74
2023/07/26 01:53:43;;;;;;;8.05;4.38;;;589.10;2432.00;;;;;;5079647;28;20025;-73
2023/07/26 01:56:09;;;;;;;8.25;4.78;;;589.10;2432.00;;;;;;5076424;28;20032;-73
2023/07/26 01:58:34;;;;;;;9.32;4.32;;;588.90;2432.00;;;;;;5074721;28;20377;-73
2023/07/26 02:01:03;;;;;;;9.73;4.93;;;589.10;2432.00;;;;;;5079237;28;20194;-72
2023/07/26 02:03:29;;;;;;;10.48;4.90;;;588.90;2432.00;;;;;;5081441;28;20024;-72
2023/07/26 02:05:54;;;;;;;8.80;4.43;;;588.90;2432.00;;;;;;5079517;28;20024;-73
2023/07/26 02:08:21;;;;;;;15.52;5.13;;;588.80;2432.00;;;;;;5077392;28;20090;-72
2023/07/26 02:10:47;;;;;;;8.38;4.75;;;588.90;2432.00;;;;;;5074011;28;20381;-71
2023/07/26 02:13:13;;;;;;;10.90;4.82;;;588.90;2432.00;;;;;;5072910;28;20032;-72
2023/07/26 02:15:39;;;;;;;9.80;5.03;;;588.80;2432.00;;;;;;5073717;28;20024;-79
2023/07/26 02:18:05;;;;;;;8.10;4.40;;;588.80;2432.00;;;;;;5072541;28;20104;-73
2023/07/26 02:20:32;;;;;;;12.27;6.28;;;564.10;2432.00;;;;;;5072499;28;20025;-74
2023/07/26 02:22:58;;;;;;;9.60;4.70;;;588.80;2432.00;;;;;;5070884;28;20456;-74
2023/07/26 02:25:24;;;;;;;8.23;5.25;;;588.80;2432.00;;;;;;5071081;28;20115;-74
2023/07/26 02:27:50;;;;;;;9.40;5.22;;;588.80;2432.00;;;;;;5071073;28;20017;-73
2023/07/26 02:30:16;;;;;;;8.68;5.18;;;588.80;2432.00;;;;;;5070967;28;20066;-74
2023/07/26 02:32:41;;;;;;;6.65;4.38;;;588.80;2432.00;;;;;;5070949;28;20044;-73
2023/07/26 02:35:08;;;;;;;9.00;4.95;;;564.10;2432.00;;;;;;5074505;28;20037;-74
2023/07/26 02:37:34;;;;;;;10.32;5.10;;;564.10;2432.00;;;;;;5074602;28;20100;-72
2023/07/26 02:39:59;;;;;;;11.20;5.25;;;564.10;2432.00;;;;;;5076031;28;20108;-74
2023/07/26 02:42:27;;;;;;;7.45;4.03;;;;;;;;;;5074145;28;20090;-72
2023/07/26 02:44:54;;;;;;;7.90;4.80;;;;;;;;;;5074007;28;20025;-73
2023/07/26 02:47:20;;;;;;;10.07;4.93;;;;;;;;;;5074317;28;20035;-73
2023/07/26 02:49:46;;;;;;;7.50;4.80;;;;;;;;;;5075360;28;20473;-74
2023/07/26 02:52:12;;;;;;;7.70;4.57;;;;;;;;;;5075619;28;20103;-77
2023/07/26 02:54:39;;;;;;;8.60;4.97;;;;;;;;;;5075394;28;20559;-75
2023/07/26 02:57:05;;;;;;;8.60;5.18;;;;;;;;;;5075617;28;20486;-75
2023/07/26 02:59:31;;;;;;;6.97;3.92;;;;;;;;;;5075395;28;20078;-72
2023/07/26 03:01:57;;;;;;;7.35;4.43;;;;;;;;;;5075423;28;20096;-73
2023/07/26 03:04:23;;;;;;;7.13;4.38;;;;;;;;;;5075130;28;20020;-73
2023/07/26 03:06:51;;;;;;;5.65;3.30;;;;;;;;;;5073604;28;20072;-73
2023/07/26 03:09:17;;;;;;;7.35;4.50;;;;;;;;;;5075217;28;20078;-74
2023/07/26 03:11:43;;;;;;;8.40;4.53;;;;;;;;;;5075460;28;20095;-73
2023/07/26 03:14:09;;;;;;;7.57;3.80;;;;;;;;;;5073982;28;20020;-73
2023/07/26 03:16:35;;;;;;;8.05;4.05;;;;;;;;;;5075380;28;20020;-73
2023/07/26 03:19:01;;;;;;;6.70;4.18;;;;;;;;;;5074653;28;20021;-73
2023/07/26 03:21:27;;;;;;;11.93;4.20;;;;;;;;;;5073869;28;20094;-73
2023/07/26 03:23:53;;;;;;;7.43;4.07;;;;;;;;;;5074970;28;20474;-75
2023/07/26 03:26:19;;;;;;;7.13;4.32;;;;;;;;;;5075016;28;20466;-75
2023/07/26 03:28:45;;;;;;;6.10;4.00;;;;;;;;;;5073587;28;20419;-73
2023/07/26 03:31:11;;;;;;;7.15;3.63;;;;;;;;;;5075054;28;20059;-73
2023/07/26 03:33:37;;;;;;;6.28;3.50;;;588.90;2432.00;;;;;;5074565;28;20474;-73
2023/07/26 03:36:03;;;;;;;4.50;2.83;;;588.90;2432.00;;;;;;5074559;28;20102;-73
2023/07/26 03:38:29;;;;;;;4.60;3.25;;;588.80;2432.00;;;;;;5074706;28;20021;-73
2023/07/26 03:40:54;;;;;;;5.38;3.38;;;564.10;2432.00;;;;;;5074761;28;20047;-74
2023/07/26 03:43:20;;;;;;;6.80;3.40;;;564.10;2432.00;;;;;;5056655;28;20036;-77
2023/07/26 03:45:46;;;;;;;5.10;3.28;;;564.00;2432.00;;;;;;5073393;28;20556;-73
2023/07/26 03:48:11;;;;;;;5.90;3.42;;;564.00;2432.00;;;;;;5074521;28;20432;-73
2023/07/26 03:50:37;;;;;;;6.55;3.05;;;564.00;2432.00;;;;;;5074347;28;20032;-73
2023/07/26 03:53:03;;;;;;;6.75;2.65;;;564.00;2432.00;;;;;;5073023;28;20470;-73
2023/07/26 03:55:28;;;;;;;4.32;2.67;;;564.00;2432.00;;;;;;5074614;28;20032;-73
2023/07/26 03:57:54;;;;;;;5.88;2.58;;;563.90;2432.00;;;;;;5074325;28;20390;-74
2023/07/26 04:00:20;;;;;;;4.07;2.50;;;563.90;2432.00;;;;;;5074427;28;20051;-73
2023/07/26 04:02:45;;;;;;;4.30;2.60;;;563.70;2432.00;;;;;;5074123;28;20025;-73
2023/07/26 04:05:11;;;;;;;6.47;2.60;;;563.70;2432.00;;;;;;5073882;28;20028;-73
2023/07/26 04:07:39;;;;;;;3.85;2.20;;;563.80;2432.00;;;;;;5072829;28;20044;-75
2023/07/26 04:10:05;;;;;;;5.05;2.42;;;563.80;2432.00;;;;;;5072885;28;20028;-74
2023/07/26 04:12:30;;;;;;;4.90;2.67;;;563.80;2432.00;;;;;;5072451;28;20428;-74
2023/07/26 04:14:56;;;;;;;4.72;2.33;;;;;;;;;;5073515;28;20158;-72
2023/07/26 04:17:23;;;;;;;4.35;2.15;;;;;;;;;;5073889;28;20382;-73
2023/07/26 04:19:48;;;;;;;4.00;2.40;;;563.90;2432.00;;;;;;5073426;28;20462;-75
2023/07/26 04:22:14;;;;;;;5.90;2.65;;;563.90;2432.00;;;;;;5073777;28;20036;-73
2023/07/26 04:24:44;;;;;;;4.22;2.30;;;563.90;2432.00;;;;;;5072732;28;20036;-73
2023/07/26 04:27:10;;;;;;;5.00;2.65;;;563.90;2432.00;;;;;;5073721;28;20108;-74
2023/07/26 04:29:36;;;;;;;4.63;2.20;;;563.90;2432.00;;;;;;5073865;28;20048;-73
2023/07/26 04:32:02;;;;;;;5.05;2.13;;;564.00;2432.00;;;;;;5072406;28;20028;-73
2023/07/26 04:34:27;;;;;;;6.13;2.35;;;563.90;2432.00;;;;;;5073454;28;20013;-73
2023/07/26 04:36:53;;;;;;;6.18;2.72;;;563.90;2432.00;;;;;;5073254;28;20045;-72
2023/07/26 04:39:19;;;;;;;5.18;2.83;;;564.10;2432.00;;;;;;5073795;28;20020;-73
2023/07/26 04:41:44;;;;;;;5.47;2.40;;;564.00;2432.00;;;;;;5073539;28;20428;-74
2023/07/26 04:44:10;;;;;;;4.93;2.58;;;564.00;2432.00;;;;;;5073576;28;20029;-71
2023/07/26 04:46:36;;;;;;;4.00;2.38;;;564.10;2432.00;;;;;;5071552;28;20072;-71
2023/07/26 04:49:02;;;;;;;5.60;2.95;;;588.80;2432.00;;;;;;5073073;28;20021;-72
2023/07/26 04:51:27;;;;;;;4.75;2.90;;;564.10;2432.00;;;;;;5073074;28;20021;-74
2023/07/26 04:53:53;;;;;;;7.22;2.58;;;564.10;2432.00;;;;;;5072323;28;20025;-70
2023/07/26 04:56:19;;;;;;;4.75;2.58;;;564.10;2432.00;;;;;;5079537;28;20535;-70
2023/07/26 04:58:44;;;;;;;3.88;2.63;;;588.80;2432.00;;;;;;5076504;28;20016;-71
2023/07/26 05:01:10;;;;;;;6.10;3.08;;;588.90;2432.00;;;;;;5076656;28;20047;-71
2023/07/26 05:03:38;;;;;;;4.80;2.97;;;589.00;2432.00;;;;;;5078629;28;20090;-73
2023/07/26 05:06:04;;;;;;;5.30;2.63;;;589.10;2432.00;;;;;;5076220;28;20037;-70
2023/07/26 05:08:29;;;;;;;4.82;2.92;;;589.10;2432.00;;;;;;5080878;28;20039;-71
2023/07/26 05:10:55;;;;;;;6.70;2.95;;;589.10;2432.00;;;;;;5073983;28;20027;-73
2023/07/26 05:13:22;;;;;;;6.90;3.63;;;589.10;2432.00;;;;;;5075438;28;20470;-71
2023/07/26 05:15:49;;;;;;;7.43;3.55;;;589.20;2432.00;;;;;;5078206;28;20028;-77
2023/07/26 05:18:15;;;;;;;8.10;3.53;;;589.20;2432.00;;;;;;5074988;28;20043;-70
2023/07/26 05:20:42;;;;;;;5.65;3.10;;;589.10;2432.00;;;;;;5079185;28;20021;-72
2023/07/26 05:23:08;;;;;;;6.00;3.33;;;589.10;2432.00;;;;;;5078274;28;20032;-71
2023/07/26 05:25:34;;;;;;;6.07;3.58;;;589.10;2432.00;;;;;;5079522;28;20106;-71
2023/07/26 05:28:00;;;;;;;6.30;3.53;;;589.00;2432.00;;;;;;5073875;28;20500;-71
2023/07/26 05:30:26;;;;;;;6.82;3.53;;;589.10;2432.00;;;;;;5086081;28;20028;-71
2023/07/26 05:32:51;;;;;;;5.25;3.13;;;589.10;2432.00;;;;;;5076983;28;20032;-71
2023/07/26 05:35:17;;;;;;;4.32;2.45;;;589.10;2432.00;;;;;;5075853;28;20104;-72
2023/07/26 05:37:43;;;;;;;9.85;3.40;;;589.10;2432.00;;;;;;5076976;28;20041;-71
2023/07/26 05:40:09;;;;;;;6.03;3.40;;;589.00;2432.00;;;;;;5076344;28;20029;-72
2023/07/26 05:42:44;;;;;;;7.05;3.70;;;589.00;2432.00;;;;;;5080196;28;20016;-71
2023/07/26 05:45:10;;;;;;;7.00;4.75;;;589.00;2432.00;;;;;;5080390;28;20498;-70
2023/07/26 05:47:38;;;;;;;6.68;3.40;;;589.00;2432.00;;;;;;5080490;28;20094;-71
2023/07/26 05:50:06;;;;;;;4.90;3.05;;;589.00;2432.00;;;;;;5088255;28;20024;-72
2023/07/26 05:52:32;;;;;;;8.90;3.33;;;589.00;2432.00;;;;;;5081336;28;20381;-72
2023/07/26 05:54:57;;;;;;;8.18;3.25;;;589.00;2432.00;;;;;;5079841;28;20111;-71
2023/07/26 05:57:23;;;;;;;6.05;2.80;;;589.10;2432.00;;;;;;5080658;28;20386;-71
2023/07/26 05:59:49;;;;;;;5.85;2.85;;;589.20;2432.00;;;;;;5086115;28;20024;-71
2023/07/26 06:02:15;;;;;;;6.03;3.15;;;589.10;2432.00;;;;;;5079096;28;20031;-70
2023/07/26 06:04:40;;;;;;;9.77;4.93;;;589.10;2432.00;;;;;;5080091;28;20511;-73
2023/07/26 06:07:06;;;;;;;7.32;3.15;;;589.10;2432.00;;;;;;5077105;28;20120;-72
2023/07/26 06:09:33;;;;;;;10.40;5.40;;;589.00;2432.00;;;;;;5080723;28;20024;-71
2023/07/26 06:11:59;;;;;;;5.25;3.50;;;589.00;2432.00;;;;;;5082910;28;20039;-72
2023/07/26 06:14:25;;;;;;;10.65;5.45;;;589.00;2432.00;;;;;;5080852;28;20032;-72
2023/07/26 06:16:51;;;;;;;8.77;5.75;;;589.00;2432.00;;;;;;5083938;28;20032;-72
2023/07/26 06:19:17;;;;;;;6.75;3.20;;;589.00;2432.00;;;;;;5085790;28;20090;-71
2023/07/26 06:21:43;;;;;;;5.40;3.00;;;589.00;2432.00;;;;;;5071305;28;20033;-73
2023/07/26 06:24:08;;;;;;;31.90;10.88;;;588.90;2432.00;;;;;;5082052;28;20039;-72
2023/07/26 06:26:34;;;;;;;20.33;12.65;;;588.80;2432.00;;;;;;5079721;28;20028;-71
2023/07/26 06:29:00;;;;;;;15.18;7.68;;;588.80;2432.00;;;;;;5081489;28;20051;-72
2023/07/26 06:31:25;;;;;;;7.88;5.00;;;588.80;2432.00;;;;;;5075645;28;20094;-71
2023/07/26 06:33:51;;;;;;;10.23;4.55;;;588.90;2432.00;;;;;;5081333;28;20024;-71
2023/07/26 06:36:17;;;;;;;13.32;5.47;;;589.00;2432.00;;;;;;5086814;28;20061;-71
2023/07/26 06:38:42;;;;;;;6.68;3.67;;;589.00;2432.00;;;;;;5080212;28;20044;-71
2023/07/26 06:41:08;;;;;;;5.40;3.53;;;589.10;2432.00;;;;;;5084872;28;20427;-73
2023/07/26 06:43:34;;;;;;;5.25;3.58;;;589.10;2432.00;;;;;;5084303;28;20024;-71
2023/07/26 06:46:00;;;;;;;14.80;6.95;;;589.30;2432.00;;;;;;5083348;28;20036;-74
2023/07/26 06:48:26;;;;;;;27.23;16.33;;;589.50;2432.00;;;;;;5082490;28;20040;-71
2023/07/26 06:50:51;;;;;;;9.75;6.15;;;589.70;2432.00;;;;;;5084945;28;20036;-71
2023/07/26 06:53:17;;;;;;;6.45;3.47;;;614.60;2432.00;;;;;;5084361;28;20021;-71
2023/07/26 06:55:43;;;;;;;7.15;4.05;;;614.80;2432.00;;;;;;5087702;28;20024;-73
2023/07/26 06:58:09;;;;;;;9.15;4.38;;;;;;;;;;5080159;28;20036;-71
2023/07/26 07:00:35;;;;;;;6.85;4.53;;;615.10;2432.00;;;;;;5083326;28;20016;-70
2023/07/26 07:03:03;;;;;;;6.38;3.60;;;615.00;2432.00;;;;;;5083622;28;20036;-72
2023/07/26 07:05:30;;;;;;;8.32;4.18;;;615.20;2432.00;;;;;;5071449;28;20066;-71
2023/07/26 07:07:56;;;;;;;7.78;4.03;;;640.00;2432.00;;;;;;5076899;28;20086;-70
2023/07/26 07:10:22;;;;;;;4.93;3.45;;;640.20;2432.00;;;;;;5084040;28;20028;-72
2023/07/26 07:12:48;;;;;;;10.00;4.88;;;640.20;2432.00;;;;;;5080576;28;20100;-71
2023/07/26 07:15:14;;;;;;;6.47;3.42;;;640.50;2432.00;;;;;;5075823;28;20016;-72
2023/07/26 07:17:40;;;;;;;5.72;2.92;;;640.60;2432.00;;;;;;5082524;28;20502;-71
2023/07/26 07:20:07;;;;;;;5.43;2.45;;;640.70;2432.00;;;;;;5082611;28;20036;-71
2023/07/26 07:22:33;;;;;;;5.25;2.97;;;640.70;2432.00;;;;;;5071450;28;20424;-71
2023/07/26 07:24:59;;;;;;;4.95;2.72;;;640.90;2432.00;;;;;;5076331;28;20032;-74
2023/07/26 07:27:25;;;;;;;4.50;2.40;;;665.60;2432.00;;;;;;5077913;28;20111;-71
2023/07/26 07:29:51;;;;;;;4.80;2.83;;;665.60;2432.00;;;;;;5078057;28;20024;-71
2023/07/26 07:32:18;;;;;;;4.13;2.67;;;665.60;2432.00;;;;;;5082502;28;20056;-72
2023/07/26 07:34:45;;;;;;;8.35;2.42;;;665.80;2432.00;;;;;;5075718;28;20012;-73
2023/07/26 07:37:10;;;;;;;5.45;2.65;;;665.90;2432.00;;;;;;5083153;28;20067;-72
2023/07/26 07:39:36;;;;;;;5.15;2.63;;;665.90;2432.00;;;;;;5081469;28;20024;-71
2023/07/26 07:42:02;;;;;;;4.57;2.60;;;665.70;2432.00;;;;;;5082127;28;20056;-72
2023/07/26 07:44:29;;;;;;;4.40;2.70;;;640.70;2432.00;;;;;;5084614;28;20040;-73
2023/07/26 07:46:55;;;;;;;5.10;2.92;;;640.80;2432.00;;;;;;5085093;28;20036;-72
2023/07/26 07:49:21;;;;;;;5.35;3.00;;;640.90;2432.00;;;;;;5084151;28;20431;-73
2023/07/26 07:51:47;;;;;;;5.68;3.60;;;665.60;2432.00;;;;;;5079928;28;20104;-72
2023/07/26 07:54:12;;;;;;;6.43;2.75;;;640.90;2432.00;;;;;;5080422;28;20393;-73
2023/07/26 07:56:38;;;;;;;3.88;2.40;;;640.90;2432.00;;;;;;5083986;28;20028;-72
2023/07/26 07:59:04;;;;;;;6.57;2.97;;;640.90;2432.00;;;;;;5081428;28;20048;-72
2023/07/26 08:01:30;;;;;;;9.13;4.20;;;640.90;2432.00;;;;;;5075727;28;20474;-71
2023/07/26 08:03:59;;;;;;;7.75;3.58;;;665.60;2432.00;;;;;;5079531;28;20429;-73
2023/07/26 08:06:29;;;;;;;8.57;3.50;;;640.90;2432.00;;;;;;5079242;28;20047;-70
2023/07/26 08:08:55;;;;;;;5.40;3.15;;;666.20;2432.00;;;;;;5078959;28;20036;-72
2023/07/26 08:11:21;;;;;;;10.35;5.93;;;666.00;2432.00;;;;;;5083932;28;20047;-72
2023/07/26 08:13:47;;;;;;;26.58;17.10;;;665.90;2432.00;;;;;;5079378;28;20024;-72
2023/07/26 08:16:13;;;;;;;15.00;9.05;;;665.70;2432.00;;;;;;5078202;28;20108;-71
2023/07/26 08:18:39;;;;;;;8.68;5.93;;;665.60;2432.00;;;;;;5081774;28;20031;-71
2023/07/26 08:21:05;;;;;;;5.93;4.15;;;640.90;2432.00;;;;;;5079685;28;20025;-71
2023/07/26 08:23:32;;;;;;;7.03;3.60;;;640.70;2432.00;;;;;;5073611;28;20039;-71
2023/07/26 08:26:07;;;;;;;10.75;4.70;;;640.70;2432.00;;;;;;5078642;28;20068;-73
2023/07/26 08:28:33;;;;;;;6.70;3.28;;;640.90;2432.00;;;;;;5081567;28;20020;-73
2023/07/26 08:31:00;;;;;;;5.53;3.70;;;640.90;2432.00;;;;;;5079973;28;20043;-72
2023/07/26 08:33:25;;;;;;;10.55;6.85;;;640.90;2432.00;;;;;;5074651;28;20036;-71
2023/07/26 08:35:51;;;;;;;8.52;4.28;;;640.70;2432.00;;;;;;5078074;28;20044;-75
2023/07/26 08:38:20;;;;;;;7.20;4.10;;;640.70;2432.00;;;;;;5077722;28;20039;-71
2023/07/26 08:40:47;;;;;;;5.88;3.95;;;640.70;2432.00;;;;;;5084100;28;20024;-72
2023/07/26 08:43:21;;;;;;;6.95;4.18;;;640.70;2432.00;;;;;;5080746;28;20035;-71
2023/07/26 08:45:47;;;;;;;5.85;3.47;;;640.70;2432.00;;;;;;5080006;28;20092;-71
2023/07/26 08:48:13;;;;;;;9.30;5.10;;;640.60;2432.00;;;;;;5084584;28;20074;-72
2023/07/26 08:50:40;;;;;;;9.13;3.63;;;640.70;2432.00;;;;;;5076209;28;20024;-73
2023/07/26 08:53:07;;;;;;;19.05;10.30;;;640.90;2432.00;;;;;;5084624;28;20024;-72
2023/07/26 08:55:35;;;;;;;10.23;4.72;;;665.90;2432.00;;;;;;5075722;28;20016;-71
2023/07/26 08:58:02;;;;;;;5.50;3.60;;;666.00;2432.00;;;;;;5080594;28;20393;-70
2023/07/26 09:00:29;;;;;;;6.03;3.70;;;665.70;2432.00;;;;;;5078181;28;20028;-72
2023/07/26 09:02:57;;;;;;;6.63;4.05;;;665.70;2432.00;;;;;;5075288;28;20029;-70
2023/07/26 09:05:23;;;;;;;9.57;4.30;;;665.60;2432.00;;;;;;5078432;28;20044;-71
2023/07/26 09:07:52;;;;;;;6.05;4.10;;;665.60;2432.00;;;;;;5082688;28;20032;-71
2023/07/26 09:10:28;;;;;;;7.65;3.95;;;640.90;2432.00;;;;;;5074063;28;20024;-71
2023/07/26 09:13:14;;;;;;;9.00;4.90;;;640.70;2432.00;;;;;;5084707;28;20028;-71
2023/07/26 09:15:43;;;;;;;7.22;3.63;;;640.70;2432.00;;;;;;5075575;28;20503;-71
2023/07/26 09:18:09;;;;;;;7.90;3.90;;;640.60;2432.00;;;;;;5070023;28;20701;-71
2023/07/26 09:20:36;;;;;;;5.82;3.95;;;640.60;2432.00;;;;;;5083424;28;20020;-70
2023/07/26 09:23:05;;;;;;;5.85;3.60;;;640.70;2432.00;;;;;;5075360;28;20123;-71
2023/07/26 09:25:44;;;;;;;6.10;4.15;;;640.90;2432.00;;;;;;5077206;28;20025;-72
2023/07/26 09:28:15;;;;;;;7.22;4.55;;;640.90;2432.00;;;;;;5077812;28;20028;-70
2023/07/26 09:30:42;;;;;;;7.32;3.72;;;665.60;2432.00;;;;;;5082450;28;20383;-71
2023/07/26 09:33:11;;;;;;;5.28;3.30;;;665.60;2432.00;;;;;;5082797;28;20115;-70
2023/07/26 09:35:43;;;;;;;5.85;4.35;;;665.60;2432.00;;;;;;5077126;28;20039;-72
2023/07/26 09:38:10;;;;;;;7.97;4.43;;;665.80;2432.00;;;;;;5060120;28;20033;-71
2023/07/26 09:40:36;;;;;;;5.93;3.95;;;666.30;2432.00;;;;;;5079361;28;20119;-71
2023/07/26 09:43:03;;;;;;;6.65;3.90;;;691.30;2432.00;;;;;;5077591;28;20103;-73
2023/07/26 09:45:30;;;;;;;7.38;4.45;;;691.80;2432.00;;;;;;5085496;28;20020;-72
2023/07/26 09:48:10;;;;;;;5.80;3.63;;;691.40;2432.00;;;;;;5085414;28;20028;-71
2023/07/26 09:50:37;;;;;;;5.65;4.10;;;666.50;2406.40;;;;;;5080080;28;20028;-71
2023/07/26 09:53:05;;;;;;;6.18;3.42;;;666.40;2432.00;;;;;;5084117;28;20020;-72
2023/07/26 09:55:31;;;;;;;7.30;3.85;;;691.70;2432.00;;;;;;5085372;28;20023;-72
2023/07/26 09:57:58;;;;;;;5.28;3.85;;;691.90;2432.00;;;;;;5085328;28;20017;-71
2023/07/26 10:00:26;;;;;;;7.07;3.30;;;716.80;2380.80;;;;;;5085610;28;20059;-71
2023/07/26 10:03:01;;;;;;;5.35;3.33;;;717.10;2380.80;;;;;;5079765;28;20370;-71
2023/07/26 10:05:41;;;;;;;6.25;3.53;;;717.20;2227.20;;;;;;5085224;28;20021;-71
2023/07/26 10:08:08;;;;;;;6.10;3.85;;;717.20;2227.20;;;;;;5079340;28;20041;-71
2023/07/26 10:10:34;;;;;;;5.47;3.30;;;717.20;2176.00;;;;;;5083877;28;20124;-72
2023/07/26 10:13:01;;;;;;;6.80;3.13;;;716.90;2252.80;;;;;;5077675;28;20060;-70
2023/07/26 10:15:30;;;;;;;6.18;3.45;;;716.80;2278.40;;;;;;5085302;28;20020;-71
2023/07/26 10:17:56;;;;;;;8.30;3.28;;;717.10;2252.80;;;;;;5083267;28;20027;-72
2023/07/26 10:20:23;;;;;;;6.53;3.35;;;717.40;2124.80;;;;;;5086531;28;20020;-70
2023/07/26 10:22:50;;;;;;;5.32;3.60;;;742.40;2099.20;;;;;;5081283;28;20502;-70
2023/07/26 10:25:16;;;;;;;7.88;3.63;;;717.50;2124.80;;;;;;5083155;28;20028;-71
2023/07/26 10:27:45;;;;;;;9.18;3.55;;;717.20;2176.00;;;;;;5090693;28;20032;-73
2023/07/26 10:30:11;;;;;;;7.53;3.40;;;716.80;2201.60;;;;;;5084329;28;20366;-71
2023/07/26 10:32:48;;;;;;;7.07;3.42;;;717.10;2176.00;;;;;;5079280;28;20111;-71
2023/07/26 10:35:32;;;;;;;6.35;3.63;;;717.50;2150.40;;;;;;5081821;28;20020;-71
2023/07/26 10:38:02;;;;;;;5.53;3.17;;;717.70;2099.20;;;;;;5078853;28;20032;-71
2023/07/26 10:40:38;;;;;;;8.55;3.20;;;717.60;2073.60;;;;;;5082862;28;20432;-72
2023/07/26 10:43:36;;;;;;;6.13;3.47;;;717.60;2124.80;;;;;;5078821;28;20070;-72
2023/07/26 10:46:09;;;;;;;5.03;3.10;;;717.30;2099.20;;;;;;5086340;28;20048;-71
2023/07/26 10:48:39;;;;;;;4.53;2.92;;;742.40;2099.20;;;;;;5082053;28;20025;-72
2023/07/26 10:51:26;;;;;;;5.90;3.35;;;742.80;1996.80;;;;;;5084362;28;20029;-72
2023/07/26 10:53:53;;;;;;;4.68;3.00;;;743.00;1945.60;;;;;;5081421;28;20032;-72
2023/07/26 10:56:26;;;;;;;9.70;3.40;;;743.20;1843.20;;;;;;5085590;28;20020;-72
2023/07/26 10:59:04;;;;;;;5.63;3.33;;;768.10;1843.20;;;;;;5080926;28;20040;-71
2023/07/26 11:01:40;;;;;;;8.82;3.08;;;743.00;1945.60;;;;;;5082456;28;20020;-71
2023/07/26 11:04:15;;;;;;;5.75;3.63;;;742.90;1996.80;;;;;;5082199;28;20108;-72
2023/07/26 11:06:57;;;;;;;6.80;3.00;;;743.00;1894.40;;;;;;5081240;28;20043;-73
2023/07/26 11:09:27;;;;;;;5.25;3.25;;;742.40;1920.00;;;;;;5077483;28;20142;-71
2023/07/26 11:11:59;;;;;;;6.65;3.10;;;742.40;1971.20;;;;;;5073242;28;20471;-71
2023/07/26 11:14:27;;;;;;;4.40;2.95;;;742.40;2022.40;;;;;;5081680;28;20478;-72
2023/07/26 11:16:53;;;;;;;6.43;3.63;;;742.60;1945.60;;;;;;5084137;28;20424;-72
2023/07/26 11:19:19;;;;;;;4.90;2.88;;;717.70;1920.00;;;;;;5082721;28;20085;-72
2023/07/26 11:21:45;;;;;;;6.38;2.92;;;742.40;1920.00;;;;;;5081598;28;20028;-73
2023/07/26 11:24:11;;;;;;;5.30;2.70;;;742.50;1945.60;;;;;;5082765;28;20111;-72
2023/07/26 11:26:45;;;;;;;5.53;3.20;;;742.60;1894.40;;;;;;5079093;28;20040;-72
2023/07/26 11:29:12;;;;;;;4.57;2.42;;;742.90;1868.80;;;;;;5081168;28;20478;-74
2023/07/26 11:31:38;;;;;;;8.48;3.03;;;742.90;1868.80;;;;;;5080236;28;20382;-72
2023/07/26 11:34:14;;;;;;;6.55;3.17;;;742.60;1971.20;;;;;;5080224;28;20097;-72
2023/07/26 11:36:40;;;;;;;5.15;3.05;;;717.70;1945.60;;;;;;5082689;28;20105;-71
2023/07/26 11:39:16;;;;;;;5.68;3.15;;;717.50;1920.00;;;;;;5081855;28;20049;-73
2023/07/26 11:41:43;;;;;;;5.88;2.70;;;717.40;1920.00;;;;;;5083711;28;20025;-71
2023/07/26 11:44:10;;;;;;;4.90;2.90;;;717.40;1920.00;;;;;;5083767;28;20024;-70
2023/07/26 11:46:35;;;;;;;6.22;2.75;;;717.40;1945.60;;;;;;5083748;28;20036;-71
2023/07/26 11:49:01;;;;;;;7.57;2.45;;;717.50;1920.00;;;;;;5083816;28;20035;-70
2023/07/26 11:51:31;;;;;;;3.53;2.50;;;717.60;1920.00;;;;;;5075318;28;20032;-71
2023/07/26 11:53:57;;;;;;;5.60;2.70;;;717.50;1894.40;;;;;;5092983;28;20020;-71
2023/07/26 11:56:30;;;;;;;5.38;2.65;;;;;;;;;;5085001;28;20028;-71
2023/07/26 11:58:58;;;;;;;3.83;2.63;;;716.80;1971.20;;;;;;5088514;28;20074;-72
2023/07/26 12:01:24;;;;;;;5.07;2.53;;;716.80;2022.40;;;;;;5079567;28;20029;-71
2023/07/26 12:03:51;;;;;;;2.45;1.90;;;691.90;2048.00;;;;;;5079538;28;20356;-72
2023/07/26 12:06:19;;;;;;;4.38;2.40;;;692.00;2048.00;;;;;;5081361;28;20103;-71
2023/07/26 12:08:47;;;;;;;5.07;2.40;;;691.80;2099.20;;;;;;5083246;28;20459;-72
2023/07/26 12:11:17;;;;;;;5.45;2.58;;;691.70;2022.40;;;;;;5077858;28;20555;-71
2023/07/26 12:13:45;;;;;;;5.10;2.42;;;;;;;;;;5078926;28;20031;-71
2023/07/26 12:16:11;;;;;;;4.18;2.08;;;;;;;;;;5070075;28;20378;-70
2023/07/26 12:18:49;;;;;;;5.15;2.42;;;691.90;2073.60;;;;;;5080568;28;20107;-71
2023/07/26 12:21:15;;;;;;;5.72;2.78;;;691.80;2048.00;;;;;;5076578;28;20422;-72
2023/07/26 12:23:52;;;;;;;5.47;2.60;;;691.90;2073.60;;;;;;5074923;28;20127;-72
2023/07/26 12:26:23;;;;;;;3.85;2.50;;;691.80;2022.40;;;;;;5069637;28;20021;-72